Tatabanya, Hungary
Current Conditions -  °F | °C
As of 8:15 AM on Thursday 27 Nov 2014 (Local Time) from LHPR Reporting Station
Haze Haze  
Wind Chill: 28°   Ceiling: 4000
Heat Index: 36°   Visibility: 2.8mi
Dew Point: 32°   Wind: 10mph
Humidity: 87%   Direction: 120°ESE
Pressure: 30.15"   Gusts: NA
Location:  47.55°N, 18.44°E
Report Text: LHPR 270615Z 12009KT 4500 BR BKN040 02/00 Q1021
Loading
Personal Weather Stations






























Interactive Weather Map New forecast layout! Learn more

10-Day Weather Forecast

Advertisements
Track Severe Weather on mobile